KILN/ILN METAR and TAF weather

Enter ICAO airport designator
Station Type Date Time Source
KILN METAR 2020/03/31 04:54 UTC NOAA

KILN 310454Z AUTO 03003KT 10SM CLR 06/01 A3005 RMK AO2 SLP187 T00560006 401390056


Station Type Date Time Source
KILN Decoded METAR 2020/03/31 04:54 UTC NOAA

WILMINGTON INDUSTRIAL AIRPORT , OH, United States (KILN) 39-26N 083-47W 332M
Mar 31, 2020 - 12:54 AM EDT / 2020.03.31 0454 UTC
Wind: from the NNE (030 degrees) at 3 MPH (3 KT):0
Visibility: 10 mile(s):0
Sky conditions: clear
Temperature: 42.1 F (5.6 C)
Dew Point: 33.1 F (0.6 C)
Relative Humidity: 70%
Pressure (altimeter): 30.05 in. Hg (1017 hPa)
ob: KILN 310454Z AUTO 03003KT 10SM CLR 06/01 A3005 RMK AO2 SLP187 T00560006 401390056
cycle: 5

Station Type Date Time Source
KILN TAF 2020/03/31 06:22 UTC NOAA

TAF KILN 310520Z 3106/0106 01005KT P6SM OVC200
FM311400 03005KT P6SM SCT025 OVC035
TEMPO 3115/3118 BKN025
FM312000 01008KT P6SM BKN035
FM010100 01008KT P6SM OVC025
FM010500 36008KT P6SM OVC015

Example: see airport list